MÉTÉO QUÉBEC version 2 détaillée est disponible à meteoquebec.com/template/

Sites météorologiques /Documentations/ Programmes:

Météo Québec
Site web version 2
Modèle de Meteotemplate

CoCoRaHS Canada
Station CAN-QC-39

METEOTEMPLATE
SITE MÉTÉO

Météo Basses-Laurentides, Qc

Météo Breakeyville, Qc

Météo Chaudière-Appalaches, Qc

Météo Chicoutimi, Qc

Météo Fredericton, N-B

Météo Haut-Richelieu, Qc

Météo Kamouraska, Qc

Météo Lanaudière, Qc

Météo Matane, Qc

Météo Montréal, Qc

Météo Mt St-Hilaire, Qc

Météo Outaouais, Qc

Météo Rimouski, Qc

Météo Ste-Famille, Qc

Météo St-Hyacinthe, Qc

Météo St-Laurent, Mtl

Météo St-Léonard, Mtl

Météo St-Hubert, Mtl

Météo St-Pascal, Qc

Météo Vaudreuil, Mtl

Météo Alerte Québec

Météo Centre

État des routes
Québec 511

Québec en Alerte

Orage Québec

Québec Vortex
chasseurs de tempêtes

Hydro Météo (info-rivière)

Avalanche Québec

Agrométéo Québec

Bulletin des agriculteurs secteur Québec

Réseau Météo-Québec

Réseau Météo des Provinces Atlantiques

Réseau Météo Ontario

Séismes Canada
l'Est du Canada

Fire Smoke Canada

Canwarn Québec

Climat Québec

Environnement Canada

MétéoMédia

Leuven Template

Réseau de transport de la Capitale (RTC)



Aucun avertissement, veille ou avis en vigueur en ce moment

Rapports METAR

   
CYQB - QUEBEC
Mise à jour: 05.04.2020 06:00
Nuageux  
Nuageux  
   Vent: varie 3.7 km/h
Vent: varie 3.7 km/h
Température: 0°C
Point de rosée: -1°C
Humidité relative: 93%
Baromètre: 1015.9 hPa
Nuageux: Nuageux
visibilité: 24.1 km
Détails des nuages: Nuageux 1950.7 m
CYQB 051000Z VRB02KT 15SM OVC064 M00/M01 A3000 RMK SC8 SLP163
CYRQ - TROIS-RIVIERES
Mise à jour: 05.04.2020 06:00
Nuageux  
Nuageux  
   Vent: calme
Vent: calme
Température: 1°C
Point de rosée: -1°C
Humidité relative: 87%
Baromètre: 1015.6 hPa
Nuageux: Nuageux
visibilité: 14.5 km
Détails des nuages: Partiellement Nuageux 1981.2 m,
Nuageux 2590.8 m
CYRQ 051000Z AUTO 00000KT 9SM BKN065 OVC085 01/M01 A2999 RMK SLP160
CYGP - SHERBROOKE
Mise à jour: 05.04.2020 06:00
Généralement dégagé  
Généralement dégagé  
   Vent: calme
Vent: calme
Température: -6°C
Point de rosée: -6°C
Humidité relative: 100%
Baromètre: 1015.9 hPa
Nuageux: Généralement dégagé
visibilité: 24.1 km
Détails des nuages: Généralement dégagé 2133.6 m
CYGP 051000Z 00000KT 15SM FEW070 M06/M06 A3000 RMK AC1 SLP163
CYUL - MONTREAL
Mise à jour: 05.04.2020 06:00
Nuageux  
Nuageux  
   Vent: ESE 7.4 km/h
Vent: ESE 7.4 km/h
Température: 7°C
Refroidissement éolien: 6°C
Point de rosée: 3°C
Humidité relative: 76%
Baromètre: 1015.2 hPa
Nuageux: Nuageux
visibilité: 24.1 km
Détails des nuages: Partiellement Nuageux 1828.8 m,
Partiellement Nuageux 2438.4 m,
Nuageux 3657.6 m
CYUL 051000Z 12004KT 15SM BKN060 BKN080 OVC120 07/03 A2998 RMK SC6AC1AC1 SLP155
CYND - GATINEAU
Mise à jour: 04.04.2020 21:00
PAS actuel
Partiellement Nuageux  
Partiellement Nuageux  
   Vent: North 5.6 km/h
Vent: North 5.6 km/h
Température: 6°C
Refroidissement éolien: 5°C
Point de rosée: 3°C
Humidité relative: 81%
Baromètre: 1015.9 hPa
Nuageux: Partiellement Nuageux
visibilité: 24.1 km
Détails des nuages: Généralement dégagé 1524 m,
Partiellement Nuageux 3657.6 m
CYND 050100Z 35003KT 15SM FEW050 BKN120 06/03 A3000 RMK SC1AC4 LAST STFD OBS/NEXT 051100 UTC SLP162
CYOW - OTTAWA
Mise à jour: 05.04.2020 06:41
Nuageux  
Nuageux  
   Vent: OSO 5.6 km/h
Vent: OSO 5.6 km/h
Température: 7°C
Refroidissement éolien: 6°C
Point de rosée: 5°C
Humidité relative: 87%
Baromètre: 1014.9 hPa
Nuageux: Nuageux
visibilité: 16.1 km
Détails des nuages: Nuageux 1219.2 m
CYOW 051041Z 25003KT 200V260 10SM OVC040 07/05 A2997 RMK SC8 SLP152
CYGK - KINGSTON
Mise à jour: 05.04.2020 06:00
Pluie faible  
Pluie faible  
   Vent: calme
Vent: calme
visibilité: 24.1 km
CYGK 051000Z 00000KT 15SM -RA FEW020 BKN030 04/04 A3000 RMK SC2SC5 SLP163
CYYZ - TORONTO
Mise à jour: 05.04.2020 06:00
Nuageux  
Nuageux  
   Vent: NNE 9.3 km/h
Vent: NNE 9.3 km/h
Température: 6°C
Refroidissement éolien: 4°C
Point de rosée: 4°C
Humidité relative: 87%
Baromètre: 1016.6 hPa
Nuageux: Nuageux
visibilité: 24.1 km
Détails des nuages: Partiellement nuageux 1127.8 m,
Nuageux 1524 m
CYYZ 051000Z 02005KT 350V050 15SM SCT037 OVC050 06/04 A3002 RMK SC4SC4 SLP170
CYYY - MONT-JOLI
Mise à jour: 05.04.2020 06:00
Nuageux  
Nuageux  
   Vent: varie 5.6 km/h
Vent: varie 5.6 km/h
Température: 2°C
Refroidissement éolien: 1°C
Point de rosée: -3°C
Humidité relative: 70%
Baromètre: 1015.2 hPa
Nuageux: Nuageux
visibilité: 24.1 km
Détails des nuages: Partiellement Nuageux 1676.4 m,
Nuageux 6705.6 m
CYYY 051000Z VRB03KT 15SM BKN055 OVC220 02/M03 A2998 RMK SC6CI1 CI TR SLP156
CWZS - AMQUI
Mise à jour: 08.07.2019 18:00
PAS actuel
  
  
   Vent: SSO 7.4 km/h
Vent: SSO 7.4 km/h
Température: 15°C
Point de rosée: 13°C
Humidité relative: 88%
CWZS 082200Z AUTO 20004KT 15/13 RMK AO1 SLP080 T01490131 50015
CWRZ - CHANDLER
Mise à jour: 05.04.2020 06:00
  
  
   Vent: Ouest 9.3 km/h
Vent: Ouest 9.3 km/h
CWRZ 051000Z AUTO 26005KT RMK AO1 56001
CYGP - GASPE
Mise à jour: 05.04.2020 06:00
Généralement dégagé  
Généralement dégagé  
   Vent: calme
Vent: calme
Température: -6°C
Point de rosée: -6°C
Humidité relative: 100%
Baromètre: 1015.9 hPa
Nuageux: Généralement dégagé
visibilité: 24.1 km
Détails des nuages: Généralement dégagé 2133.6 m
CYGP 051000Z 00000KT 15SM FEW070 M06/M06 A3000 RMK AC1 SLP163
CYBX - BLANC-SABLON
Mise à jour: 05.04.2020 06:13
Faible neige  
Faible neige  
   Vent: NNE 5.6 km/h
Vent: NNE 5.6 km/h
visibilité: 16.1 km
CYBX 051013Z 02003KT 10SM -SN OVC029 M05/M08 A3000 RMK SC8 SLP162
CYAD - BAIE-JAMES
Mise à jour: 30.10.2015 16:00
PAS actuel
Light Showers, Neige  
Light Showers, Neige  
   Vent: NO 20.4 km/h<br />Gust to 20.4 km/h
Vent: NO 20.4 km/h
Gust to 20.4 km/h
visibilité: 9.7 km
CYAD 302000Z 31011G17KT 6SM -SHSN OVC012 M02/M04 A2968 RMK SC7 LAST OBS/NEXT 021200 UTC SLP066
CYMT - CHIBOUGAMAU
Mise à jour: 05.04.2020 06:00
Pluie faible  
Pluie faible  
   Vent: SE 5.6 km/h
Vent: SE 5.6 km/h
visibilité: 14.5 km
CYMT 051000Z AUTO 14003KT 9SM -RA FEW043 OVC085 02/M00 A2982 RMK SLP115
CYGR - ILES-DE-LA-MADELEINE
Mise à jour: 05.04.2020 06:00
Partiellement nuageux  
Partiellement nuageux  
   Vent: NNE 3.7 km/h
Vent: NNE 3.7 km/h
Température: -4°C
Point de rosée: -8°C
Humidité relative: 74%
Baromètre: 1017.3 hPa
Nuageux: Partiellement nuageux
visibilité: 32.2 km
Détails des nuages: Partiellement nuageux 1097.3 m
CYGR 051000Z 02002KT 20SM SCT036 M04/M08 A3004 RMK SC4 SLP173
CWBY - PORT-MENIER
Mise à jour: 05.04.2020 06:00
  
  
   Vent: ESE 5.6 km/h
Vent: ESE 5.6 km/h
Température: -3°C
Refroidissement éolien: -5°C
Point de rosée: -3°C
Humidité relative: 100%
CWBY 051000Z AUTO 12003KT M03/M03 RMK AO1 SOG 34 6006 SLP151 T10281031
CYZV - SEPT-ILES
Mise à jour: 05.04.2020 06:01
Brouillard  
Brouillard  
   Vent: ENE 5.6 km/h
Vent: ENE 5.6 km/h
visibilité: 4.8 km
CYZV 051001Z 06003KT 3SM R09/3500VP6000FT/U BR FEW003 BKN059 BKN100 M04/M04 A2996 RMK SF2SC3AC1 SLP150

Script développé par  Saratoga-weather.org Adapté pour le modèle par  Weerstation Leuven

Vous trouverez nos données via:

Weather Underground

Équipements et logiciels que nous utilisons:

Station de Météo
Davis VP2

Programme Météo
Weather Display

Ordinateur Météo
Asus/Intel

Provider
Rapidenet Canada

Davis VP2

Weather Display

Asus/Intel

Rapidenet Canada